Time;durP1;ratioP1;P1;durP2;ratioP2;P2;SDS_P1;SDS_P2;PMS_P1;PMS_P2;Temp;Humidity;BMP_temperature;BMP_pressure;BME280_temperature;BME280_humidity;BME280_pressure;Samples;Min_cycle;Max_cycle;Signal;HPM_P1;HPM_P2
2021/07/17 00:02:31;;;;;;;31.98;12.18;;;17.60;99.90;;;;;;12521652;28;20168;-85
2021/07/17 00:08:34;;;;;;;36.63;13.15;;;17.60;99.90;;;;;;12523304;28;20053;-84
2021/07/17 00:14:36;;;;;;;26.98;11.20;;;17.60;99.90;;;;;;12515002;28;20045;-84
2021/07/17 00:20:38;;;;;;;28.10;11.70;;;17.60;99.90;;;;;;12521867;28;20044;-84
2021/07/17 00:26:39;;;;;;;30.08;11.57;;;17.60;99.90;;;;;;12527394;28;20079;-84
2021/07/17 00:32:42;;;;;;;26.10;10.77;;;17.60;99.90;;;;;;12523471;28;20358;-85
2021/07/17 00:38:44;;;;;;;24.13;10.65;;;17.50;99.90;;;;;;12528543;28;20094;-85
2021/07/17 00:44:46;;;;;;;33.28;11.52;;;17.50;99.90;;;;;;12530641;28;20053;-85
2021/07/17 00:50:48;;;;;;;28.23;11.65;;;17.40;99.90;;;;;;12534962;28;20041;-85
2021/07/17 00:56:52;;;;;;;29.70;10.95;;;17.40;99.90;;;;;;12536834;28;20045;-85
2021/07/17 01:03:10;;;;;;;31.92;12.40;;;17.50;99.90;;;;;;12538819;28;20040;-85
2021/07/17 01:09:12;;;;;;;29.88;11.38;;;17.50;99.90;;;;;;12536328;28;20549;-85
2021/07/17 01:15:14;;;;;;;27.85;11.50;;;17.50;99.90;;;;;;12536759;28;20798;-84
2021/07/17 01:21:17;;;;;;;24.83;11.30;;;17.50;99.90;;;;;;12534656;28;20041;-85
2021/07/17 01:27:19;;;;;;;28.70;11.77;;;17.50;99.90;;;;;;12538289;28;20101;-84
2021/07/17 01:33:21;;;;;;;34.70;12.40;;;17.50;99.90;;;;;;12535776;28;20388;-85
2021/07/17 01:39:23;;;;;;;31.73;12.73;;;17.50;99.90;;;;;;12535187;28;20053;-84
2021/07/17 01:45:31;;;;;;;34.08;12.18;;;17.40;99.90;;;;;;12530047;28;20788;-84
2021/07/17 01:51:33;;;;;;;26.88;11.80;;;17.40;99.90;;;;;;12539923;28;20090;-84
2021/07/17 01:57:35;;;;;;;32.13;12.23;;;17.50;99.90;;;;;;12534593;28;20131;-85
2021/07/17 02:03:42;;;;;;;29.88;12.52;;;17.60;99.90;;;;;;12530674;28;20114;-84
2021/07/17 02:09:44;;;;;;;26.88;12.90;;;17.40;99.90;;;;;;12537416;28;20055;-85
2021/07/17 02:15:47;;;;;;;27.83;12.88;;;17.40;99.90;;;;;;12523306;28;20049;-85
2021/07/17 02:21:51;;;;;;;25.90;12.10;;;17.30;99.90;;;;;;12530234;28;20124;-85
2021/07/17 02:27:53;;;;;;;27.83;12.43;;;17.30;99.90;;;;;;12529235;28;20551;-85
2021/07/17 02:33:55;;;;;;;32.05;12.55;;;17.40;99.90;;;;;;12529808;28;20479;-85
2021/07/17 02:39:57;;;;;;;27.48;11.82;;;17.50;99.90;;;;;;12532999;28;20136;-85
2021/07/17 02:45:58;;;;;;;28.08;11.35;;;17.50;99.90;;;;;;12529765;28;20140;-84
2021/07/17 02:52:00;;;;;;;31.23;11.68;;;17.50;99.90;;;;;;12526079;28;20094;-85
2021/07/17 02:58:04;;;;;;;30.95;11.23;;;17.40;99.90;;;;;;12530756;28;20040;-85
2021/07/17 03:04:05;;;;;;;26.77;11.07;;;17.40;99.90;;;;;;12524106;28;20091;-84
2021/07/17 03:10:08;;;;;;;34.65;12.50;;;17.40;99.90;;;;;;12534206;28;20063;-86
2021/07/17 03:16:10;;;;;;;28.05;12.15;;;17.20;99.90;;;;;;12533029;28;20113;-85
2021/07/17 03:22:12;;;;;;;30.40;11.63;;;17.10;99.90;;;;;;12563718;28;20079;-85
2021/07/17 03:28:14;;;;;;;28.00;12.38;;;17.30;99.90;;;;;;12550627;28;20095;-85
2021/07/17 03:34:16;;;;;;;36.28;12.65;;;17.30;99.90;;;;;;12521508;28;20041;-85
2021/07/17 03:40:18;;;;;;;41.65;14.40;;;17.20;99.90;;;;;;12523442;28;20052;-85
2021/07/17 03:46:19;;;;;;;35.65;13.52;;;17.10;99.90;;;;;;12521670;28;20052;-84
2021/07/17 03:52:21;;;;;;;40.05;13.75;;;17.30;99.90;;;;;;12523520;28;20049;-85
2021/07/17 03:58:23;;;;;;;35.38;13.15;;;17.20;99.90;;;;;;12524590;28;20091;-84
2021/07/17 04:04:25;;;;;;;38.20;14.18;;;17.20;99.90;;;;;;12520765;28;20045;-85
2021/07/17 04:10:27;;;;;;;33.28;12.13;;;17.30;99.90;;;;;;12521058;28;20174;-84
2021/07/17 04:16:29;;;;;;;31.48;12.82;;;17.10;99.90;;;;;;12529511;28;20048;-85
2021/07/17 04:22:32;;;;;;;36.50;12.80;;;17.30;99.90;;;;;;12533562;28;20538;-84
2021/07/17 04:28:35;;;;;;;38.33;13.40;;;17.20;99.90;;;;;;12531950;28;20098;-85
2021/07/17 04:34:37;;;;;;;40.63;13.20;;;17.20;99.90;;;;;;12530445;28;20061;-84
2021/07/17 04:40:39;;;;;;;42.70;13.13;;;17.30;99.90;;;;;;12534678;28;20110;-85
2021/07/17 04:46:41;;;;;;;34.20;12.30;;;17.20;99.90;;;;;;12535986;28;20048;-86
2021/07/17 04:52:43;;;;;;;36.35;11.60;;;17.20;99.90;;;;;;12528229;28;20037;-85
2021/07/17 04:58:45;;;;;;;34.58;11.75;;;17.10;99.90;;;;;;12530974;28;20041;-86
2021/07/17 05:04:47;;;;;;;32.40;11.10;;;17.10;99.90;;;;;;12527132;28;20090;-85
2021/07/17 05:10:49;;;;;;;38.15;10.27;;;17.20;99.90;;;;;;12531102;28;20037;-85
2021/07/17 05:16:51;;;;;;;27.63;11.30;;;17.30;99.90;;;;;;12530480;28;20081;-85
2021/07/17 05:22:53;;;;;;;39.80;10.60;;;17.20;99.90;;;;;;12532695;28;20504;-85
2021/07/17 05:28:54;;;;;;;28.40;9.43;;;17.40;99.90;;;;;;12529793;28;20477;-85
2021/07/17 05:34:56;;;;;;;31.98;11.02;;;17.30;99.90;;;;;;12537160;28;20053;-85
2021/07/17 05:40:58;;;;;;;29.83;9.32;;;17.40;99.90;;;;;;12537121;28;20048;-85
2021/07/17 05:47:00;;;;;;;26.80;9.07;;;17.40;99.90;;;;;;12532917;28;20083;-85
2021/07/17 05:53:08;;;;;;;23.77;8.63;;;17.50;99.90;;;;;;12535190;28;20132;-86
2021/07/17 05:59:12;;;;;;;24.50;9.07;;;17.50;99.90;;;;;;12534961;28;20101;-84
2021/07/17 06:05:14;;;;;;;30.38;9.10;;;17.60;99.90;;;;;;12529285;28;20053;-84
2021/07/17 06:11:16;;;;;;;28.55;9.30;;;17.60;99.90;;;;;;12533997;28;20131;-85
2021/07/17 06:17:18;;;;;;;23.77;8.88;;;17.70;99.90;;;;;;12532232;28;20086;-84
2021/07/17 06:23:19;;;;;;;26.48;9.27;;;17.70;99.90;;;;;;12534023;28;20128;-84
2021/07/17 06:29:21;;;;;;;21.67;7.68;;;17.70;99.90;;;;;;12535780;28;20111;-84
2021/07/17 06:35:23;;;;;;;24.02;6.72;;;18.00;99.90;;;;;;12528301;28;20049;-85
2021/07/17 06:41:25;;;;;;;21.77;6.78;;;18.00;99.90;;;;;;12532425;28;20048;-85
2021/07/17 06:47:26;;;;;;;16.13;5.72;;;18.10;99.90;;;;;;12532446;28;20045;-85
2021/07/17 06:53:28;;;;;;;15.55;5.13;;;18.30;99.90;;;;;;12522616;28;20048;-85
2021/07/17 06:59:30;;;;;;;13.13;4.78;;;18.40;99.90;;;;;;12530086;28;20124;-85
2021/07/17 07:05:33;;;;;;;15.15;4.70;;;18.50;99.90;;;;;;12532469;28;20525;-85
2021/07/17 07:11:39;;;;;;;14.00;4.30;;;18.50;99.90;;;;;;12532742;28;20079;-85
2021/07/17 07:17:41;;;;;;;9.77;3.50;;;18.50;99.90;;;;;;12530344;28;20049;-84
2021/07/17 07:23:42;;;;;;;12.50;3.83;;;18.70;99.90;;;;;;12526397;28;20064;-85
2021/07/17 07:29:44;;;;;;;11.20;3.75;;;18.70;99.90;;;;;;12528246;28;20056;-84
2021/07/17 07:35:46;;;;;;;11.63;3.53;;;18.70;99.90;;;;;;12537200;28;20071;-85
2021/07/17 07:41:48;;;;;;;10.25;3.28;;;18.70;99.90;;;;;;12570948;28;20060;-85
2021/07/17 07:47:51;;;;;;;11.43;3.38;;;18.70;99.90;;;;;;12544458;28;20199;-85
2021/07/17 07:53:53;;;;;;;12.82;3.20;;;19.00;99.90;;;;;;12541490;28;20045;-86
2021/07/17 07:59:55;;;;;;;14.05;3.90;;;19.10;99.90;;;;;;12521259;28;20512;-87
2021/07/17 08:05:57;;;;;;;11.20;3.63;;;19.30;99.90;;;;;;12511398;28;20086;-85
2021/07/17 08:11:58;;;;;;;9.75;3.50;;;19.40;99.90;;;;;;12520140;28;20051;-86
2021/07/17 08:18:03;;;;;;;9.93;3.42;;;19.60;99.90;;;;;;12516550;28;20076;-87
2021/07/17 08:24:06;;;;;;;12.82;3.45;;;19.80;99.90;;;;;;12516779;28;20049;-86
2021/07/17 08:30:11;;;;;;;13.47;3.40;;;20.00;99.90;;;;;;12512490;28;20650;-86
2021/07/17 08:36:28;;;;;;;11.48;3.15;;;20.00;99.90;;;;;;12517546;28;20136;-87
2021/07/17 08:42:34;;;;;;;10.35;4.20;;;20.10;99.90;;;;;;12520346;28;20057;-87
2021/07/17 08:48:36;;;;;;;13.05;3.22;;;20.10;99.90;;;;;;12519012;28;20746;-86
2021/07/17 08:54:40;;;;;;;14.98;3.25;;;20.20;99.90;;;;;;12514804;28;20064;-86
2021/07/17 09:00:44;;;;;;;9.77;2.78;;;20.30;99.90;;;;;;12516141;28;20045;-86
2021/07/17 09:06:46;;;;;;;10.80;2.97;;;20.60;99.90;;;;;;12518387;28;20048;-88
2021/07/17 09:13:12;;;;;;;8.93;2.50;;;21.10;99.90;;;;;;12520441;28;20048;-87
2021/07/17 09:19:14;;;;;;;9.57;2.45;;;21.30;99.90;;;;;;12524219;28;20064;-87
2021/07/17 09:25:17;;;;;;;9.68;3.28;;;21.30;99.90;;;;;;12515897;28;20049;-86
2021/07/17 09:31:19;;;;;;;11.05;2.72;;;21.30;99.90;;;;;;12525848;28;20041;-87
2021/07/17 09:37:24;;;;;;;11.05;3.00;;;21.10;99.90;;;;;;12526954;28;20057;-86
2021/07/17 09:43:44;;;;;;;7.53;3.00;;;21.80;99.90;;;;;;12512706;28;20053;-88
2021/07/17 09:49:46;;;;;;;10.23;2.75;;;22.00;99.90;;;;;;12521720;28;20078;-87
2021/07/17 09:56:03;;;;;;;9.32;2.83;;;22.10;99.90;;;;;;12523687;28;20549;-86
2021/07/17 10:02:05;;;;;;;8.63;2.83;;;22.40;99.90;;;;;;12524903;28;20044;-89
2021/07/17 10:08:09;;;;;;;13.98;3.50;;;22.50;99.90;;;;;;12532960;28;20095;-87
2021/07/17 10:14:36;;;;;;;10.55;2.70;;;22.50;99.90;;;;;;12515710;28;20103;-88
2021/07/17 10:20:37;;;;;;;11.77;2.90;;;23.00;99.90;;;;;;12529357;28;20044;-87
2021/07/17 10:26:40;;;;;;;10.00;2.70;;;23.20;99.90;;;;;;12524385;28;20044;-89
2021/07/17 10:32:42;;;;;;;9.80;2.80;;;23.30;99.90;;;;;;12522441;28;20044;-87
2021/07/17 10:38:45;;;;;;;7.82;2.25;;;23.40;99.90;;;;;;12523538;28;20052;-88
2021/07/17 10:44:56;;;;;;;9.60;2.25;;;23.60;99.90;;;;;;12523824;28;20045;-87
2021/07/17 10:51:22;;;;;;;6.97;2.25;;;23.90;99.90;;;;;;12508245;28;20053;-86
2021/07/17 10:57:27;;;;;;;7.80;2.22;;;23.90;99.90;;;;;;12501400;28;20049;-88
2021/07/17 11:03:32;;;;;;;8.50;2.00;;;24.10;99.90;;;;;;12509615;28;20047;-86
2021/07/17 11:10:08;;;;;;;8.20;1.75;;;24.30;99.90;;;;;;12513894;28;20581;-88
2021/07/17 11:16:10;;;;;;;7.40;1.92;;;24.40;99.90;;;;;;12516337;28;20045;-86
2021/07/17 11:22:13;;;;;;;4.80;1.52;;;24.40;99.90;;;;;;12506015;28;20040;-89
2021/07/17 11:28:50;;;;;;;6.35;1.52;;;24.60;99.90;;;;;;12509704;28;20143;-86
2021/07/17 11:34:53;;;;;;;5.30;1.30;;;24.80;99.90;;;;;;12513378;28;20073;-88
2021/07/17 11:40:55;;;;;;;6.03;1.63;;;24.90;99.90;;;;;;12544154;28;20716;-87
2021/07/17 11:47:08;;;;;;;5.82;1.58;;;25.20;99.90;;;;;;12531677;28;20099;-88
2021/07/17 11:53:16;;;;;;;4.60;1.20;;;25.30;99.90;;;;;;12500682;28;20040;-87
2021/07/17 11:59:18;;;;;;;4.95;1.33;;;25.20;99.90;;;;;;12512330;28;20118;-88
2021/07/17 12:05:20;;;;;;;5.05;1.33;;;25.30;99.90;;;;;;12508487;28;20041;-88
2021/07/17 12:11:22;;;;;;;8.35;1.13;;;25.40;99.90;;;;;;12512179;28;20086;-87
2021/07/17 12:17:25;;;;;;;2.78;1.10;;;25.50;99.90;;;;;;12512566;28;20049;-86
2021/07/17 12:23:27;;;;;;;4.30;0.98;;;25.40;99.90;;;;;;12513461;28;20064;-86
2021/07/17 12:29:31;;;;;;;3.53;0.95;;;25.70;99.90;;;;;;12512986;28;20053;-87
2021/07/17 12:35:33;;;;;;;5.15;1.05;;;25.80;99.90;;;;;;12512991;28;20219;-87
2021/07/17 12:41:35;;;;;;;4.22;0.90;;;25.60;99.90;;;;;;12521220;28;20045;-86
2021/07/17 12:47:49;;;;;;;6.22;0.82;;;25.70;99.90;;;;;;12526246;28;20135;-85
2021/07/17 12:54:03;;;;;;;5.55;0.88;;;26.00;99.90;;;;;;12518098;28;20037;-88
2021/07/17 13:00:06;;;;;;;2.90;0.70;;;25.80;99.90;;;;;;12539405;28;20083;-86
2021/07/17 13:06:23;;;;;;;4.05;1.00;;;25.80;99.90;;;;;;12524445;28;20619;-86
2021/07/17 13:12:27;;;;;;;4.70;1.20;;;26.00;99.90;;;;;;12520672;28;20101;-87
2021/07/17 13:18:33;;;;;;;3.83;1.17;;;26.00;99.90;;;;;;12536250;28;20140;-87
2021/07/17 13:24:46;;;;;;;6.75;1.10;;;26.10;99.90;;;;;;12512526;28;20075;-87
2021/07/17 13:30:48;;;;;;;5.18;0.90;;;26.20;99.90;;;;;;12516182;28;20048;-85
2021/07/17 13:37:09;;;;;;;3.63;0.93;;;25.80;99.90;;;;;;12521107;28;20045;-86
2021/07/17 13:43:14;;;;;;;4.13;1.02;;;26.00;99.90;;;;;;12523308;28;20095;-85
2021/07/17 13:49:18;;;;;;;3.55;1.13;;;26.10;99.90;;;;;;12521243;28;20149;-87
2021/07/17 13:55:30;;;;;;;3.72;1.20;;;26.30;99.90;;;;;;12510423;28;20457;-85
2021/07/17 14:01:34;;;;;;;3.65;1.20;;;26.40;99.90;;;;;;12518781;28;20037;-87
2021/07/17 14:07:38;;;;;;;4.13;1.13;;;26.40;99.90;;;;;;12505956;28;20102;-87
2021/07/17 14:13:42;;;;;;;6.72;1.30;;;26.40;99.90;;;;;;12511795;28;20045;-87
2021/07/17 14:19:45;;;;;;;2.28;1.00;;;26.20;99.90;;;;;;12517070;28;20500;-87
2021/07/17 14:25:48;;;;;;;5.93;1.00;;;26.20;99.90;;;;;;12511166;28;20071;-87
2021/07/17 14:31:50;;;;;;;3.42;1.00;;;26.30;99.90;;;;;;12519764;28;20044;-87
2021/07/17 14:37:53;;;;;;;9.93;1.20;;;26.50;99.90;;;;;;12512760;28;20142;-86
2021/07/17 14:43:55;;;;;;;3.58;1.23;;;26.50;99.90;;;;;;12529297;28;20049;-85
2021/07/17 14:49:57;;;;;;;3.30;0.80;;;26.50;99.90;;;;;;12511626;28;20053;-87
2021/07/17 14:55:59;;;;;;;1.60;0.70;;;26.40;99.90;;;;;;12512473;28;20081;-88
2021/07/17 15:02:01;;;;;;;3.15;0.85;;;26.40;99.90;;;;;;12517164;28;20074;-87
2021/07/17 15:08:05;;;;;;;3.83;0.77;;;26.30;99.90;;;;;;12510574;28;20068;-86
2021/07/17 15:14:07;;;;;;;3.83;0.93;;;26.00;99.90;;;;;;12557811;28;20061;-86
2021/07/17 15:20:10;;;;;;;4.32;0.90;;;26.10;99.90;;;;;;12520214;28;20056;-86
2021/07/17 15:26:13;;;;;;;5.45;1.08;;;26.00;99.90;;;;;;12520716;28;20093;-87
2021/07/17 15:32:15;;;;;;;3.67;0.85;;;26.10;99.90;;;;;;12513722;28;20124;-88
2021/07/17 15:38:17;;;;;;;3.92;1.10;;;26.20;99.90;;;;;;12517687;28;20053;-86
2021/07/17 15:44:19;;;;;;;4.18;1.13;;;26.20;99.90;;;;;;12516409;28;20126;-85
2021/07/17 15:50:22;;;;;;;5.28;1.30;;;26.00;99.90;;;;;;12512999;28;20049;-87
2021/07/17 15:56:24;;;;;;;3.10;0.93;;;26.00;99.90;;;;;;12512758;28;20551;-87
2021/07/17 16:02:25;;;;;;;2.88;1.00;;;25.80;99.90;;;;;;12512987;28;20826;-88
2021/07/17 16:08:28;;;;;;;1.77;0.77;;;26.00;99.90;;;;;;12518693;28;20482;-88
2021/07/17 16:14:29;;;;;;;2.80;0.82;;;25.80;99.90;;;;;;12512597;28;20090;-85
2021/07/17 16:20:31;;;;;;;2.35;0.77;;;25.90;99.90;;;;;;12513651;28;20041;-87
2021/07/17 16:26:33;;;;;;;2.08;0.85;;;25.80;99.90;;;;;;12516785;28;20079;-86
2021/07/17 16:32:36;;;;;;;4.60;0.70;;;25.50;99.90;;;;;;12515281;28;20572;-87
2021/07/17 16:38:38;;;;;;;4.17;1.10;;;25.30;99.90;;;;;;12516633;28;20936;-86
2021/07/17 16:44:40;;;;;;;5.00;1.00;;;25.70;99.90;;;;;;12516275;28;20071;-87
2021/07/17 16:50:42;;;;;;;2.92;0.75;;;25.40;99.90;;;;;;12518455;28;20049;-86
2021/07/17 16:56:43;;;;;;;3.28;1.00;;;25.90;99.90;;;;;;12519854;28;20470;-88
2021/07/17 17:02:45;;;;;;;3.60;0.73;;;26.10;99.90;;;;;;12511395;28;20102;-84
2021/07/17 17:08:48;;;;;;;6.07;1.07;;;26.00;99.90;;;;;;12517561;28;20053;-85
2021/07/17 17:14:50;;;;;;;2.90;0.93;;;25.80;99.90;;;;;;12516002;28;20682;-86
2021/07/17 17:20:53;;;;;;;3.15;1.00;;;26.20;99.90;;;;;;12509376;28;20460;-86
2021/07/17 17:26:55;;;;;;;5.55;1.00;;;26.20;99.90;;;;;;12521785;28;20121;-85
2021/07/17 17:32:57;;;;;;;5.53;1.10;;;26.20;99.90;;;;;;12519916;28;20109;-85
2021/07/17 17:38:59;;;;;;;2.40;0.90;;;26.20;99.90;;;;;;12524343;28;20139;-84
2021/07/17 17:45:03;;;;;;;4.77;1.30;;;26.00;99.90;;;;;;12523477;28;20052;-85
2021/07/17 17:51:04;;;;;;;;;;;25.90;99.90;;;;;;12515159;28;20045;-85
2021/07/17 17:57:10;;;;;;;3.17;1.05;;;25.80;99.90;;;;;;12522604;28;20380;-85
2021/07/17 18:03:12;;;;;;;2.90;1.00;;;25.90;99.90;;;;;;12511050;28;20124;-87
2021/07/17 18:09:14;;;;;;;3.50;1.17;;;25.70;99.90;;;;;;12523938;28;20080;-85
2021/07/17 18:15:18;;;;;;;3.22;1.05;;;25.30;99.90;;;;;;12516751;28;20045;-85
2021/07/17 18:21:19;;;;;;;4.22;1.33;;;24.80;99.90;;;;;;12520273;28;20041;-85
2021/07/17 18:27:21;;;;;;;5.32;1.33;;;24.30;99.90;;;;;;12520581;28;20108;-85
2021/07/17 18:33:23;;;;;;;4.15;1.13;;;23.50;99.90;;;;;;12517486;28;20098;-85
2021/07/17 18:39:25;;;;;;;5.55;1.40;;;23.30;99.90;;;;;;12518618;28;20069;-85
2021/07/17 18:45:32;;;;;;;7.07;1.25;;;22.90;99.90;;;;;;12534350;28;20589;-84
2021/07/17 18:51:35;;;;;;;3.72;1.35;;;22.80;99.90;;;;;;12510083;28;20071;-85
2021/07/17 18:57:38;;;;;;;9.80;1.10;;;22.60;99.90;;;;;;12552603;28;20057;-86
2021/07/17 19:03:40;;;;;;;6.22;1.20;;;22.50;99.90;;;;;;12534747;28;20429;-84
2021/07/17 19:09:42;;;;;;;6.70;1.08;;;22.30;99.90;;;;;;12520156;28;20405;-85
2021/07/17 19:15:44;;;;;;;4.43;1.50;;;22.10;99.90;;;;;;12517712;28;20041;-85
2021/07/17 19:21:46;;;;;;;3.38;1.20;;;21.90;99.90;;;;;;12516002;28;20099;-84
2021/07/17 19:27:48;;;;;;;4.80;1.20;;;21.80;99.90;;;;;;12501673;28;20053;-85
2021/07/17 19:33:50;;;;;;;5.03;1.10;;;21.70;99.90;;;;;;12514201;28;20102;-85
2021/07/17 19:39:51;;;;;;;6.00;1.17;;;21.50;99.90;;;;;;12506594;28;20041;-85
2021/07/17 19:45:54;;;;;;;3.55;1.30;;;21.60;99.90;;;;;;12519160;28;20044;-84
2021/07/17 19:51:57;;;;;;;3.03;1.10;;;21.40;99.90;;;;;;12512604;28;20053;-85
2021/07/17 19:57:59;;;;;;;5.53;1.38;;;21.10;99.90;;;;;;12510349;28;20049;-85
2021/07/17 20:04:01;;;;;;;4.60;1.15;;;21.10;99.90;;;;;;12513745;28;20045;-85
2021/07/17 20:10:06;;;;;;;5.65;1.63;;;21.10;99.90;;;;;;12514746;28;20526;-85
2021/07/17 20:16:08;;;;;;;3.85;1.23;;;21.00;99.90;;;;;;12511849;28;20048;-85
2021/07/17 20:22:10;;;;;;;4.70;1.52;;;20.90;99.90;;;;;;12511305;28;20037;-85
2021/07/17 20:28:11;;;;;;;5.75;1.70;;;20.90;99.90;;;;;;12514722;28;20487;-86
2021/07/17 20:34:13;;;;;;;8.15;2.17;;;20.60;99.90;;;;;;12510811;28;20463;-85
2021/07/17 20:40:18;;;;;;;7.43;2.88;;;20.50;99.90;;;;;;12508948;28;20041;-85
2021/07/17 20:46:20;;;;;;;4.70;2.08;;;20.40;99.90;;;;;;12511675;28;20049;-85
2021/07/17 20:52:22;;;;;;;6.03;1.80;;;20.50;99.90;;;;;;12507152;28;20045;-85
2021/07/17 20:58:25;;;;;;;7.18;1.90;;;20.40;99.90;;;;;;12513357;28;20094;-85
2021/07/17 21:04:27;;;;;;;7.33;1.80;;;20.20;99.90;;;;;;12520271;28;20048;-85
2021/07/17 21:10:30;;;;;;;4.68;1.70;;;20.20;99.90;;;;;;12521567;28;20173;-85
2021/07/17 21:16:32;;;;;;;4.20;1.70;;;20.10;99.90;;;;;;12524982;28;20045;-85
2021/07/17 21:22:35;;;;;;;5.53;1.60;;;20.00;99.90;;;;;;12518892;28;20565;-85
2021/07/17 21:28:39;;;;;;;3.67;1.40;;;19.80;99.90;;;;;;12516089;28;20262;-85
2021/07/17 21:34:42;;;;;;;5.32;2.00;;;19.70;99.90;;;;;;12518546;28;20102;-85
2021/07/17 21:40:44;;;;;;;4.68;1.38;;;19.70;99.90;;;;;;12517930;28;20131;-84
2021/07/17 21:46:46;;;;;;;3.85;1.50;;;19.50;99.90;;;;;;12518573;28;20562;-85
2021/07/17 21:52:53;;;;;;;5.63;1.88;;;19.50;99.90;;;;;;12520785;28;20421;-85
2021/07/17 21:58:55;;;;;;;4.75;1.60;;;19.50;99.90;;;;;;12519060;28;20079;-85
2021/07/17 22:04:57;;;;;;;3.03;1.50;;;19.50;99.90;;;;;;12521404;28;20061;-85
2021/07/17 22:11:04;;;;;;;7.00;1.88;;;19.30;99.90;;;;;;12516930;28;20489;-85
2021/07/17 22:17:06;;;;;;;4.43;1.88;;;19.20;99.90;;;;;;12525641;28;20107;-85
2021/07/17 22:23:08;;;;;;;4.28;2.05;;;19.10;99.90;;;;;;12523430;28;20045;-84
2021/07/17 22:29:10;;;;;;;3.70;1.52;;;19.10;99.90;;;;;;12525846;28;20518;-85
2021/07/17 22:35:12;;;;;;;4.20;1.70;;;18.90;99.90;;;;;;12519804;28;20057;-85
2021/07/17 22:41:13;;;;;;;8.75;1.70;;;18.90;99.90;;;;;;12535733;28;20116;-85
2021/07/17 22:47:15;;;;;;;4.03;1.83;;;18.90;99.90;;;;;;12571044;28;20492;-86
2021/07/17 22:53:17;;;;;;;4.95;1.80;;;18.90;99.90;;;;;;12525803;28;20045;-85
2021/07/17 22:59:19;;;;;;;4.15;1.60;;;18.70;99.90;;;;;;12521372;28;20041;-85
2021/07/17 23:05:22;;;;;;;6.07;2.13;;;18.70;99.90;;;;;;12519240;28;20044;-85
2021/07/17 23:11:23;;;;;;;3.65;1.88;;;18.70;99.90;;;;;;12519311;28;20102;-85
2021/07/17 23:17:25;;;;;;;5.50;2.30;;;18.70;99.90;;;;;;12520626;28;20097;-84
2021/07/17 23:23:27;;;;;;;5.53;2.08;;;18.50;99.90;;;;;;12515810;28;20053;-84
2021/07/17 23:29:29;;;;;;;6.82;1.92;;;18.30;99.90;;;;;;12518524;28;20062;-85
2021/07/17 23:35:31;;;;;;;4.50;2.67;;;18.40;99.90;;;;;;12517452;28;20080;-84
2021/07/17 23:41:33;;;;;;;7.22;2.60;;;18.30;99.90;;;;;;12522192;28;20164;-84
2021/07/17 23:47:35;;;;;;;9.02;3.03;;;18.20;99.90;;;;;;12520707;28;20108;-84
2021/07/17 23:53:37;;;;;;;5.93;2.88;;;18.20;99.90;;;;;;12519557;28;20079;-84
2021/07/17 23:59:38;;;;;;;5.95;2.70;;;17.90;99.90;;;;;;12520839;28;20554;-85
